sensor_id;sensor_type;location;lat;lon;timestamp;temperature;humidity
78463;SHT31;67756;51.982;5.648;2023-04-25T00:01:07;9.9;65.7
78463;SHT31;67756;51.982;5.648;2023-04-25T00:03:38;9.9;65.8
78463;SHT31;67756;51.982;5.648;2023-04-25T00:06:08;9.9;65.8
78463;SHT31;67756;51.982;5.648;2023-04-25T00:08:40;9.9;65.6
78463;SHT31;67756;51.982;5.648;2023-04-25T00:11:09;9.9;65.6
78463;SHT31;67756;51.982;5.648;2023-04-25T00:13:39;9.9;65.0
78463;SHT31;67756;51.982;5.648;2023-04-25T00:16:10;9.8;65.1
78463;SHT31;67756;51.982;5.648;2023-04-25T00:18:42;9.8;64.8
78463;SHT31;67756;51.982;5.648;2023-04-25T00:21:13;9.8;65.2
78463;SHT31;67756;51.982;5.648;2023-04-25T00:23:45;9.8;65.0
78463;SHT31;67756;51.982;5.648;2023-04-25T00:26:15;9.8;65.2
78463;SHT31;67756;51.982;5.648;2023-04-25T00:28:45;9.8;64.9
78463;SHT31;67756;51.982;5.648;2023-04-25T00:31:14;9.8;64.6
78463;SHT31;67756;51.982;5.648;2023-04-25T00:33:44;9.7;64.5
78463;SHT31;67756;51.982;5.648;2023-04-25T00:36:13;9.7;64.7
78463;SHT31;67756;51.982;5.648;2023-04-25T00:38:44;9.7;64.7
78463;SHT31;67756;51.982;5.648;2023-04-25T00:41:14;9.6;64.9
78463;SHT31;67756;51.982;5.648;2023-04-25T00:43:46;9.6;64.7
78463;SHT31;67756;51.982;5.648;2023-04-25T00:46:16;9.6;65.0
78463;SHT31;67756;51.982;5.648;2023-04-25T00:48:46;9.5;64.8
78463;SHT31;67756;51.982;5.648;2023-04-25T00:51:19;9.5;64.8
78463;SHT31;67756;51.982;5.648;2023-04-25T00:53:49;9.5;64.6
78463;SHT31;67756;51.982;5.648;2023-04-25T00:56:19;9.5;64.5
78463;SHT31;67756;51.982;5.648;2023-04-25T00:58:52;9.4;64.6
78463;SHT31;67756;51.982;5.648;2023-04-25T01:01:23;9.4;64.5
78463;SHT31;67756;51.982;5.648;2023-04-25T01:03:54;9.4;64.4
78463;SHT31;67756;51.982;5.648;2023-04-25T01:06:23;9.3;64.5
78463;SHT31;67756;51.982;5.648;2023-04-25T01:08:54;9.3;64.6
78463;SHT31;67756;51.982;5.648;2023-04-25T01:11:24;9.3;64.9
78463;SHT31;67756;51.982;5.648;2023-04-25T01:13:54;9.3;65.1
78463;SHT31;67756;51.982;5.648;2023-04-25T01:16:23;9.3;65.0
78463;SHT31;67756;51.982;5.648;2023-04-25T01:18:54;9.3;65.2
78463;SHT31;67756;51.982;5.648;2023-04-25T01:21:31;9.4;65.4
78463;SHT31;67756;51.982;5.648;2023-04-25T01:24:03;9.5;64.8
78463;SHT31;67756;51.982;5.648;2023-04-25T01:26:35;9.6;64.2
78463;SHT31;67756;51.982;5.648;2023-04-25T01:29:06;9.6;63.7
78463;SHT31;67756;51.982;5.648;2023-04-25T01:31:36;9.7;63.0
78463;SHT31;67756;51.982;5.648;2023-04-25T01:34:07;9.7;63.1
78463;SHT31;67756;51.982;5.648;2023-04-25T01:36:38;9.7;63.4
78463;SHT31;67756;51.982;5.648;2023-04-25T01:39:09;9.7;63.2
78463;SHT31;67756;51.982;5.648;2023-04-25T01:41:41;9.7;62.9
78463;SHT31;67756;51.982;5.648;2023-04-25T01:44:12;9.7;63.1
78463;SHT31;67756;51.982;5.648;2023-04-25T01:46:42;9.6;63.0
78463;SHT31;67756;51.982;5.648;2023-04-25T01:49:14;9.6;63.1
78463;SHT31;67756;51.982;5.648;2023-04-25T01:51:44;9.6;63.0
78463;SHT31;67756;51.982;5.648;2023-04-25T01:54:13;9.6;62.8
78463;SHT31;67756;51.982;5.648;2023-04-25T01:56:49;9.6;63.0
78463;SHT31;67756;51.982;5.648;2023-04-25T01:59:19;9.6;63.1
78463;SHT31;67756;51.982;5.648;2023-04-25T02:01:49;9.6;62.7
78463;SHT31;67756;51.982;5.648;2023-04-25T02:04:18;9.6;62.1
78463;SHT31;67756;51.982;5.648;2023-04-25T02:06:48;9.5;62.3
78463;SHT31;67756;51.982;5.648;2023-04-25T02:09:17;9.5;62.6
78463;SHT31;67756;51.982;5.648;2023-04-25T02:11:47;9.4;62.1
78463;SHT31;67756;51.982;5.648;2023-04-25T02:14:17;9.4;62.0
78463;SHT31;67756;51.982;5.648;2023-04-25T02:16:46;9.3;62.0
78463;SHT31;67756;51.982;5.648;2023-04-25T02:19:16;9.3;62.2
78463;SHT31;67756;51.982;5.648;2023-04-25T02:21:46;9.3;62.6
78463;SHT31;67756;51.982;5.648;2023-04-25T02:24:15;9.2;62.3
78463;SHT31;67756;51.982;5.648;2023-04-25T02:26:46;9.2;62.4
78463;SHT31;67756;51.982;5.648;2023-04-25T02:29:16;9.1;62.6
78463;SHT31;67756;51.982;5.648;2023-04-25T02:31:46;9.1;62.4
78463;SHT31;67756;51.982;5.648;2023-04-25T02:34:15;9.1;62.6
78463;SHT31;67756;51.982;5.648;2023-04-25T02:36:45;9.0;63.2
78463;SHT31;67756;51.982;5.648;2023-04-25T02:39:14;9.0;62.9
78463;SHT31;67756;51.982;5.648;2023-04-25T02:41:44;9.0;63.0
78463;SHT31;67756;51.982;5.648;2023-04-25T02:44:14;8.9;62.5
78463;SHT31;67756;51.982;5.648;2023-04-25T02:46:43;8.9;62.6
78463;SHT31;67756;51.982;5.648;2023-04-25T02:49:13;8.9;63.0
78463;SHT31;67756;51.982;5.648;2023-04-25T02:51:42;8.9;63.3
78463;SHT31;67756;51.982;5.648;2023-04-25T02:54:12;8.8;63.5
78463;SHT31;67756;51.982;5.648;2023-04-25T02:56:42;8.8;63.9
78463;SHT31;67756;51.982;5.648;2023-04-25T02:59:11;8.8;63.6
78463;SHT31;67756;51.982;5.648;2023-04-25T03:01:41;8.8;63.0
78463;SHT31;67756;51.982;5.648;2023-04-25T03:04:10;8.8;63.1
78463;SHT31;67756;51.982;5.648;2023-04-25T03:06:40;8.8;63.5
78463;SHT31;67756;51.982;5.648;2023-04-25T03:09:09;8.8;63.7
78463;SHT31;67756;51.982;5.648;2023-04-25T03:11:39;8.8;63.7
78463;SHT31;67756;51.982;5.648;2023-04-25T03:14:08;8.7;63.1
78463;SHT31;67756;51.982;5.648;2023-04-25T03:16:38;8.7;63.5
78463;SHT31;67756;51.982;5.648;2023-04-25T03:19:08;8.7;63.7
78463;SHT31;67756;51.982;5.648;2023-04-25T03:21:37;8.7;63.7
78463;SHT31;67756;51.982;5.648;2023-04-25T03:24:07;8.7;64.1
78463;SHT31;67756;51.982;5.648;2023-04-25T03:26:38;8.7;64.1
78463;SHT31;67756;51.982;5.648;2023-04-25T03:29:07;8.7;64.0
78463;SHT31;67756;51.982;5.648;2023-04-25T03:31:37;8.7;64.2
78463;SHT31;67756;51.982;5.648;2023-04-25T03:34:07;8.7;64.7
78463;SHT31;67756;51.982;5.648;2023-04-25T03:36:37;8.9;64.9
78463;SHT31;67756;51.982;5.648;2023-04-25T03:39:06;9.0;64.2
78463;SHT31;67756;51.982;5.648;2023-04-25T03:41:36;9.2;63.5
78463;SHT31;67756;51.982;5.648;2023-04-25T03:44:06;9.2;63.0
78463;SHT31;67756;51.982;5.648;2023-04-25T03:46:35;9.3;62.6
78463;SHT31;67756;51.982;5.648;2023-04-25T03:49:05;9.3;62.4
78463;SHT31;67756;51.982;5.648;2023-04-25T03:51:34;9.3;62.4
78463;SHT31;67756;51.982;5.648;2023-04-25T03:54:04;9.2;62.2
78463;SHT31;67756;51.982;5.648;2023-04-25T03:56:34;9.2;62.0
78463;SHT31;67756;51.982;5.648;2023-04-25T03:59:04;9.1;61.9
78463;SHT31;67756;51.982;5.648;2023-04-25T04:01:33;9.1;62.4
78463;SHT31;67756;51.982;5.648;2023-04-25T04:04:03;9.0;62.4
78463;SHT31;67756;51.982;5.648;2023-04-25T04:06:32;8.9;62.4
78463;SHT31;67756;51.982;5.648;2023-04-25T04:09:02;8.9;63.0
78463;SHT31;67756;51.982;5.648;2023-04-25T04:11:33;8.8;63.5
78463;SHT31;67756;51.982;5.648;2023-04-25T04:14:06;8.8;63.7
78463;SHT31;67756;51.982;5.648;2023-04-25T04:16:39;8.8;63.9
78463;SHT31;67756;51.982;5.648;2023-04-25T04:19:08;8.8;63.9
78463;SHT31;67756;51.982;5.648;2023-04-25T04:21:38;8.8;63.8
78463;SHT31;67756;51.982;5.648;2023-04-25T04:24:07;8.8;63.5
78463;SHT31;67756;51.982;5.648;2023-04-25T04:26:37;8.8;63.3
78463;SHT31;67756;51.982;5.648;2023-04-25T04:29:07;8.8;63.2
78463;SHT31;67756;51.982;5.648;2023-04-25T04:31:38;8.8;63.0
78463;SHT31;67756;51.982;5.648;2023-04-25T04:34:07;8.8;63.3
78463;SHT31;67756;51.982;5.648;2023-04-25T04:36:38;8.8;62.7
78463;SHT31;67756;51.982;5.648;2023-04-25T04:39:08;8.8;63.3
78463;SHT31;67756;51.982;5.648;2023-04-25T04:41:38;8.8;63.4
78463;SHT31;67756;51.982;5.648;2023-04-25T04:44:10;8.8;63.3
78463;SHT31;67756;51.982;5.648;2023-04-25T04:46:39;8.8;63.5
78463;SHT31;67756;51.982;5.648;2023-04-25T04:49:10;8.8;63.0
78463;SHT31;67756;51.982;5.648;2023-04-25T04:51:41;8.8;63.5
78463;SHT31;67756;51.982;5.648;2023-04-25T04:54:11;8.8;64.0
78463;SHT31;67756;51.982;5.648;2023-04-25T04:56:41;8.8;63.5
78463;SHT31;67756;51.982;5.648;2023-04-25T04:59:10;8.8;63.1
78463;SHT31;67756;51.982;5.648;2023-04-25T05:01:42;8.8;63.9
78463;SHT31;67756;51.982;5.648;2023-04-25T05:04:13;8.8;63.6
78463;SHT31;67756;51.982;5.648;2023-04-25T05:06:42;8.8;64.1
78463;SHT31;67756;51.982;5.648;2023-04-25T05:09:12;8.8;64.2
78463;SHT31;67756;51.982;5.648;2023-04-25T05:11:42;8.9;64.2
78463;SHT31;67756;51.982;5.648;2023-04-25T05:14:11;8.9;63.4
78463;SHT31;67756;51.982;5.648;2023-04-25T05:16:42;8.9;63.4
78463;SHT31;67756;51.982;5.648;2023-04-25T05:19:13;8.9;64.2
78463;SHT31;67756;51.982;5.648;2023-04-25T05:21:43;9.0;63.7
78463;SHT31;67756;51.982;5.648;2023-04-25T05:24:12;9.0;63.6
78463;SHT31;67756;51.982;5.648;2023-04-25T05:26:44;9.0;63.3
78463;SHT31;67756;51.982;5.648;2023-04-25T05:29:13;9.0;63.3
78463;SHT31;67756;51.982;5.648;2023-04-25T05:31:45;9.1;63.5
78463;SHT31;67756;51.982;5.648;2023-04-25T05:34:15;9.1;64.3
78463;SHT31;67756;51.982;5.648;2023-04-25T05:36:45;9.1;64.0
78463;SHT31;67756;51.982;5.648;2023-04-25T05:39:17;9.1;63.8
78463;SHT31;67756;51.982;5.648;2023-04-25T05:41:47;9.2;63.9
78463;SHT31;67756;51.982;5.648;2023-04-25T05:44:16;9.2;63.1
78463;SHT31;67756;51.982;5.648;2023-04-25T05:46:48;9.2;63.1
78463;SHT31;67756;51.982;5.648;2023-04-25T05:49:18;9.3;62.7
78463;SHT31;67756;51.982;5.648;2023-04-25T05:51:47;9.4;62.1
78463;SHT31;67756;51.982;5.648;2023-04-25T05:54:16;9.5;61.4
78463;SHT31;67756;51.982;5.648;2023-04-25T05:56:46;9.5;61.6
78463;SHT31;67756;51.982;5.648;2023-04-25T05:59:16;9.5;60.7
78463;SHT31;67756;51.982;5.648;2023-04-25T06:01:45;9.5;61.2
78463;SHT31;67756;51.982;5.648;2023-04-25T06:04:15;9.5;61.3
78463;SHT31;67756;51.982;5.648;2023-04-25T06:06:45;9.5;61.1
78463;SHT31;67756;51.982;5.648;2023-04-25T06:09:15;9.5;60.9
78463;SHT31;67756;51.982;5.648;2023-04-25T06:11:44;9.5;61.5
78463;SHT31;67756;51.982;5.648;2023-04-25T06:14:15;9.5;61.7
78463;SHT31;67756;51.982;5.648;2023-04-25T06:16:45;9.5;61.0
78463;SHT31;67756;51.982;5.648;2023-04-25T06:19:14;9.5;61.1
78463;SHT31;67756;51.982;5.648;2023-04-25T06:21:44;9.5;61.1
78463;SHT31;67756;51.982;5.648;2023-04-25T06:24:14;9.5;62.3
78463;SHT31;67756;51.982;5.648;2023-04-25T06:26:44;9.5;62.4
78463;SHT31;67756;51.982;5.648;2023-04-25T06:29:14;9.5;62.8
78463;SHT31;67756;51.982;5.648;2023-04-25T06:31:44;9.6;62.6
78463;SHT31;67756;51.982;5.648;2023-04-25T06:34:13;9.6;62.9
78463;SHT31;67756;51.982;5.648;2023-04-25T06:36:43;9.6;62.7
78463;SHT31;67756;51.982;5.648;2023-04-25T06:39:13;9.7;62.8
78463;SHT31;67756;51.982;5.648;2023-04-25T06:41:43;9.7;62.5
78463;SHT31;67756;51.982;5.648;2023-04-25T06:44:13;9.8;62.2
78463;SHT31;67756;51.982;5.648;2023-04-25T06:46:42;9.8;62.5
78463;SHT31;67756;51.982;5.648;2023-04-25T06:49:14;9.9;63.3
78463;SHT31;67756;51.982;5.648;2023-04-25T06:51:43;9.9;61.9
78463;SHT31;67756;51.982;5.648;2023-04-25T06:54:13;10.0;61.3
78463;SHT31;67756;51.982;5.648;2023-04-25T06:56:42;10.1;61.2
78463;SHT31;67756;51.982;5.648;2023-04-25T06:59:12;10.1;60.4
78463;SHT31;67756;51.982;5.648;2023-04-25T07:01:41;10.1;60.3
78463;SHT31;67756;51.982;5.648;2023-04-25T07:04:11;10.2;61.1
78463;SHT31;67756;51.982;5.648;2023-04-25T07:06:40;10.3;60.1
78463;SHT31;67756;51.982;5.648;2023-04-25T07:09:11;10.3;60.0
78463;SHT31;67756;51.982;5.648;2023-04-25T07:11:42;10.3;59.7
78463;SHT31;67756;51.982;5.648;2023-04-25T07:14:12;10.4;59.3
78463;SHT31;67756;51.982;5.648;2023-04-25T07:16:44;10.4;58.8
78463;SHT31;67756;51.982;5.648;2023-04-25T07:19:14;10.4;58.5
78463;SHT31;67756;51.982;5.648;2023-04-25T07:21:43;10.5;58.6
78463;SHT31;67756;51.982;5.648;2023-04-25T07:24:14;10.5;58.5
78463;SHT31;67756;51.982;5.648;2023-04-25T07:26:44;10.5;58.3
78463;SHT31;67756;51.982;5.648;2023-04-25T07:29:14;10.5;57.9
78463;SHT31;67756;51.982;5.648;2023-04-25T07:31:43;10.5;58.1
78463;SHT31;67756;51.982;5.648;2023-04-25T07:34:13;10.5;57.5
78463;SHT31;67756;51.982;5.648;2023-04-25T07:36:43;10.5;57.3
78463;SHT31;67756;51.982;5.648;2023-04-25T07:39:13;10.5;57.8
78463;SHT31;67756;51.982;5.648;2023-04-25T07:41:42;10.6;57.1
78463;SHT31;67756;51.982;5.648;2023-04-25T07:44:12;10.6;57.3
78463;SHT31;67756;51.982;5.648;2023-04-25T07:46:42;10.6;58.3
78463;SHT31;67756;51.982;5.648;2023-04-25T07:49:12;10.6;59.0
78463;SHT31;67756;51.982;5.648;2023-04-25T07:51:41;10.6;57.6
78463;SHT31;67756;51.982;5.648;2023-04-25T07:54:14;10.6;58.0
78463;SHT31;67756;51.982;5.648;2023-04-25T07:56:43;10.7;56.8
78463;SHT31;67756;51.982;5.648;2023-04-25T07:59:13;10.7;57.0
78463;SHT31;67756;51.982;5.648;2023-04-25T08:01:42;10.7;57.0
78463;SHT31;67756;51.982;5.648;2023-04-25T08:04:12;10.7;58.4
78463;SHT31;67756;51.982;5.648;2023-04-25T08:06:43;10.8;57.4
78463;SHT31;67756;51.982;5.648;2023-04-25T08:09:14;10.9;57.2
78463;SHT31;67756;51.982;5.648;2023-04-25T08:11:46;11.0;56.4
78463;SHT31;67756;51.982;5.648;2023-04-25T08:14:16;11.1;55.5
78463;SHT31;67756;51.982;5.648;2023-04-25T08:16:46;11.1;55.1
78463;SHT31;67756;51.982;5.648;2023-04-25T08:19:17;11.2;54.4
78463;SHT31;67756;51.982;5.648;2023-04-25T08:21:47;11.3;53.5
78463;SHT31;67756;51.982;5.648;2023-04-25T08:24:18;11.3;53.7
78463;SHT31;67756;51.982;5.648;2023-04-25T08:26:47;11.4;53.3
78463;SHT31;67756;51.982;5.648;2023-04-25T08:29:17;11.5;53.2
78463;SHT31;67756;51.982;5.648;2023-04-25T08:31:46;11.5;52.4
78463;SHT31;67756;51.982;5.648;2023-04-25T08:34:16;11.6;53.4
78463;SHT31;67756;51.982;5.648;2023-04-25T08:36:46;11.7;53.0
78463;SHT31;67756;51.982;5.648;2023-04-25T08:39:15;11.7;52.3
78463;SHT31;67756;51.982;5.648;2023-04-25T08:41:45;11.8;51.0
78463;SHT31;67756;51.982;5.648;2023-04-25T08:44:18;11.8;50.5
78463;SHT31;67756;51.982;5.648;2023-04-25T08:46:49;11.9;50.4
78463;SHT31;67756;51.982;5.648;2023-04-25T08:49:19;11.9;50.0
78463;SHT31;67756;51.982;5.648;2023-04-25T08:51:49;11.9;50.3
78463;SHT31;67756;51.982;5.648;2023-04-25T08:54:21;12.0;50.3
78463;SHT31;67756;51.982;5.648;2023-04-25T08:56:55;12.0;49.1
78463;SHT31;67756;51.982;5.648;2023-04-25T08:59:27;12.0;47.4
78463;SHT31;67756;51.982;5.648;2023-04-25T09:01:57;12.1;48.6
78463;SHT31;67756;51.982;5.648;2023-04-25T09:04:26;12.1;48.4
78463;SHT31;67756;51.982;5.648;2023-04-25T09:06:57;12.2;50.8
78463;SHT31;67756;51.982;5.648;2023-04-25T09:09:26;12.1;52.9
78463;SHT31;67756;51.982;5.648;2023-04-25T09:11:57;12.1;54.3
78463;SHT31;67756;51.982;5.648;2023-04-25T09:14:27;12.0;50.8
78463;SHT31;67756;51.982;5.648;2023-04-25T09:17:01;11.9;51.7
78463;SHT31;67756;51.982;5.648;2023-04-25T09:19:33;11.8;53.9
78463;SHT31;67756;51.982;5.648;2023-04-25T09:22:05;11.8;53.7
78463;SHT31;67756;51.982;5.648;2023-04-25T09:24:36;11.8;55.3
78463;SHT31;67756;51.982;5.648;2023-04-25T09:27:09;11.8;55.8
78463;SHT31;67756;51.982;5.648;2023-04-25T09:29:40;11.8;54.4
78463;SHT31;67756;51.982;5.648;2023-04-25T09:32:17;11.9;53.2
78463;SHT31;67756;51.982;5.648;2023-04-25T09:34:49;11.9;52.8
78463;SHT31;67756;51.982;5.648;2023-04-25T09:37:20;12.0;50.6
78463;SHT31;67756;51.982;5.648;2023-04-25T09:39:53;12.1;48.6
78463;SHT31;67756;51.982;5.648;2023-04-25T09:42:25;12.2;45.9
78463;SHT31;67756;51.982;5.648;2023-04-25T09:44:57;12.2;46.1
78463;SHT31;67756;51.982;5.648;2023-04-25T09:47:30;12.3;46.4
78463;SHT31;67756;51.982;5.648;2023-04-25T09:50:01;12.3;45.3
78463;SHT31;67756;51.982;5.648;2023-04-25T09:52:31;12.4;46.3
78463;SHT31;67756;51.982;5.648;2023-04-25T09:55:02;12.4;47.0
78463;SHT31;67756;51.982;5.648;2023-04-25T09:57:33;12.5;47.7
78463;SHT31;67756;51.982;5.648;2023-04-25T10:00:05;12.7;47.4
78463;SHT31;67756;51.982;5.648;2023-04-25T10:02:44;12.8;45.4
78463;SHT31;67756;51.982;5.648;2023-04-25T10:05:16;12.9;44.7
78463;SHT31;67756;51.982;5.648;2023-04-25T10:07:46;13.0;43.8
78463;SHT31;67756;51.982;5.648;2023-04-25T10:10:18;13.1;44.3
78463;SHT31;67756;51.982;5.648;2023-04-25T10:12:53;13.1;43.9
78463;SHT31;67756;51.982;5.648;2023-04-25T10:15:24;13.1;42.9
78463;SHT31;67756;51.982;5.648;2023-04-25T10:17:54;13.0;43.0
78463;SHT31;67756;51.982;5.648;2023-04-25T10:20:26;13.0;42.0
78463;SHT31;67756;51.982;5.648;2023-04-25T10:23:01;13.0;43.6
78463;SHT31;67756;51.982;5.648;2023-04-25T10:25:33;12.9;46.3
78463;SHT31;67756;51.982;5.648;2023-04-25T10:28:03;12.9;46.8
78463;SHT31;67756;51.982;5.648;2023-04-25T10:30:33;13.0;46.4
78463;SHT31;67756;51.982;5.648;2023-04-25T10:33:18;13.0;45.1
78463;SHT31;67756;51.982;5.648;2023-04-25T10:35:47;13.2;45.1
78463;SHT31;67756;51.982;5.648;2023-04-25T10:38:18;13.3;45.1
78463;SHT31;67756;51.982;5.648;2023-04-25T10:41:04;13.4;44.1
78463;SHT31;67756;51.982;5.648;2023-04-25T10:43:37;13.5;44.5
78463;SHT31;67756;51.982;5.648;2023-04-25T10:46:17;13.6;43.4
78463;SHT31;67756;51.982;5.648;2023-04-25T10:48:50;13.8;43.9
78463;SHT31;67756;51.982;5.648;2023-04-25T10:51:22;14.0;43.0
78463;SHT31;67756;51.982;5.648;2023-04-25T10:54:00;14.1;41.1
78463;SHT31;67756;51.982;5.648;2023-04-25T10:56:31;14.2;38.7
78463;SHT31;67756;51.982;5.648;2023-04-25T10:59:08;14.2;39.2
78463;SHT31;67756;51.982;5.648;2023-04-25T11:01:41;14.3;38.9
78463;SHT31;67756;51.982;5.648;2023-04-25T11:04:25;14.3;38.6
78463;SHT31;67756;51.982;5.648;2023-04-25T11:07:19;14.4;40.0
78463;SHT31;67756;51.982;5.648;2023-04-25T11:09:40;14.4;40.2
78463;SHT31;67756;51.982;5.648;2023-04-25T11:12:10;14.5;39.9
78463;SHT31;67756;51.982;5.648;2023-04-25T11:14:41;14.6;40.1
78463;SHT31;67756;51.982;5.648;2023-04-25T11:17:11;14.6;40.2
78463;SHT31;67756;51.982;5.648;2023-04-25T11:19:40;14.7;39.9
78463;SHT31;67756;51.982;5.648;2023-04-25T11:22:10;14.8;39.7
78463;SHT31;67756;51.982;5.648;2023-04-25T11:24:40;14.9;38.3
78463;SHT31;67756;51.982;5.648;2023-04-25T11:27:10;15.0;36.6
78463;SHT31;67756;51.982;5.648;2023-04-25T11:29:40;15.1;38.2
78463;SHT31;67756;51.982;5.648;2023-04-25T11:32:10;15.3;36.4
78463;SHT31;67756;51.982;5.648;2023-04-25T11:34:43;15.5;37.2
78463;SHT31;67756;51.982;5.648;2023-04-25T11:37:14;15.6;37.4
78463;SHT31;67756;51.982;5.648;2023-04-25T11:39:47;15.7;37.3
78463;SHT31;67756;51.982;5.648;2023-04-25T11:42:18;15.8;36.5
78463;SHT31;67756;51.982;5.648;2023-04-25T11:44:48;15.9;36.9
78463;SHT31;67756;51.982;5.648;2023-04-25T11:47:18;16.1;37.0
78463;SHT31;67756;51.982;5.648;2023-04-25T11:49:48;16.3;36.4
78463;SHT31;67756;51.982;5.648;2023-04-25T11:52:18;16.4;37.4
78463;SHT31;67756;51.982;5.648;2023-04-25T11:54:49;16.4;38.5
78463;SHT31;67756;51.982;5.648;2023-04-25T11:57:20;16.3;39.1
78463;SHT31;67756;51.982;5.648;2023-04-25T11:59:50;16.1;40.3
78463;SHT31;67756;51.982;5.648;2023-04-25T12:02:26;15.9;40.2
78463;SHT31;67756;51.982;5.648;2023-04-25T12:04:58;15.7;41.0
78463;SHT31;67756;51.982;5.648;2023-04-25T12:07:30;15.5;40.4
78463;SHT31;67756;51.982;5.648;2023-04-25T12:10:04;15.3;41.5
78463;SHT31;67756;51.982;5.648;2023-04-25T12:12:35;15.2;41.8
78463;SHT31;67756;51.982;5.648;2023-04-25T12:15:13;15.2;41.7
78463;SHT31;67756;51.982;5.648;2023-04-25T12:17:47;15.1;41.5
78463;SHT31;67756;51.982;5.648;2023-04-25T12:20:19;15.1;41.0
78463;SHT31;67756;51.982;5.648;2023-04-25T12:22:51;15.1;41.0
78463;SHT31;67756;51.982;5.648;2023-04-25T12:25:39;15.1;41.2
78463;SHT31;67756;51.982;5.648;2023-04-25T12:28:14;15.2;40.9
78463;SHT31;67756;51.982;5.648;2023-04-25T12:31:00;15.2;39.8
78463;SHT31;67756;51.982;5.648;2023-04-25T12:33:32;15.3;40.0
78463;SHT31;67756;51.982;5.648;2023-04-25T12:36:03;15.4;39.7
78463;SHT31;67756;51.982;5.648;2023-04-25T12:38:39;15.5;39.4
78463;SHT31;67756;51.982;5.648;2023-04-25T12:41:09;15.6;38.2
78463;SHT31;67756;51.982;5.648;2023-04-25T12:43:39;15.7;37.7
78463;SHT31;67756;51.982;5.648;2023-04-25T12:46:09;15.8;39.0
78463;SHT31;67756;51.982;5.648;2023-04-25T12:48:38;15.9;39.2
78463;SHT31;67756;51.982;5.648;2023-04-25T12:51:10;16.2;38.4
78463;SHT31;67756;51.982;5.648;2023-04-25T12:53:40;16.5;36.9
78463;SHT31;67756;51.982;5.648;2023-04-25T12:56:10;16.7;37.0
78463;SHT31;67756;51.982;5.648;2023-04-25T12:58:39;16.8;36.3
78463;SHT31;67756;51.982;5.648;2023-04-25T13:01:12;16.7;36.4
78463;SHT31;67756;51.982;5.648;2023-04-25T13:03:42;16.6;38.4
78463;SHT31;67756;51.982;5.648;2023-04-25T13:06:12;16.5;37.8
78463;SHT31;67756;51.982;5.648;2023-04-25T13:08:42;16.3;36.9
78463;SHT31;67756;51.982;5.648;2023-04-25T13:11:12;16.3;37.9
78463;SHT31;67756;51.982;5.648;2023-04-25T13:13:43;16.5;35.4
78463;SHT31;67756;51.982;5.648;2023-04-25T13:16:12;16.7;34.2
78463;SHT31;67756;51.982;5.648;2023-04-25T13:18:44;17.0;35.7
78463;SHT31;67756;51.982;5.648;2023-04-25T13:21:16;17.3;36.1
78463;SHT31;67756;51.982;5.648;2023-04-25T13:23:45;17.9;34.2
78463;SHT31;67756;51.982;5.648;2023-04-25T13:26:15;18.8;34.1
78463;SHT31;67756;51.982;5.648;2023-04-25T13:28:45;19.5;32.1
78463;SHT31;67756;51.982;5.648;2023-04-25T13:31:14;20.0;31.5
78463;SHT31;67756;51.982;5.648;2023-04-25T13:33:44;20.4;30.0
78463;SHT31;67756;51.982;5.648;2023-04-25T13:36:13;20.7;28.3
78463;SHT31;67756;51.982;5.648;2023-04-25T13:38:42;20.7;28.9
78463;SHT31;67756;51.982;5.648;2023-04-25T13:41:14;20.7;28.2
78463;SHT31;67756;51.982;5.648;2023-04-25T13:43:46;20.6;26.8
78463;SHT31;67756;51.982;5.648;2023-04-25T13:46:16;20.5;28.0
78463;SHT31;67756;51.982;5.648;2023-04-25T13:48:46;20.5;28.0
78463;SHT31;67756;51.982;5.648;2023-04-25T13:51:19;20.5;29.8
78463;SHT31;67756;51.982;5.648;2023-04-25T13:53:49;20.4;29.7
78463;SHT31;67756;51.982;5.648;2023-04-25T13:56:18;20.4;28.7
78463;SHT31;67756;51.982;5.648;2023-04-25T13:58:50;20.4;29.7
78463;SHT31;67756;51.982;5.648;2023-04-25T14:01:19;20.3;29.7
78463;SHT31;67756;51.982;5.648;2023-04-25T14:03:49;20.0;30.8
78463;SHT31;67756;51.982;5.648;2023-04-25T14:06:19;19.5;31.3
78463;SHT31;67756;51.982;5.648;2023-04-25T14:08:51;19.1;31.8
78463;SHT31;67756;51.982;5.648;2023-04-25T14:11:21;18.8;32.3
78463;SHT31;67756;51.982;5.648;2023-04-25T14:13:50;18.5;32.4
78463;SHT31;67756;51.982;5.648;2023-04-25T14:16:20;18.3;33.5
78463;SHT31;67756;51.982;5.648;2023-04-25T14:18:50;18.2;34.8
78463;SHT31;67756;51.982;5.648;2023-04-25T14:21:19;18.5;33.9
78463;SHT31;67756;51.982;5.648;2023-04-25T14:23:49;19.1;32.1
78463;SHT31;67756;51.982;5.648;2023-04-25T14:26:19;19.7;31.0
78463;SHT31;67756;51.982;5.648;2023-04-25T14:28:48;19.8;30.7
78463;SHT31;67756;51.982;5.648;2023-04-25T14:31:18;19.8;29.8
78463;SHT31;67756;51.982;5.648;2023-04-25T14:33:48;19.7;29.9
78463;SHT31;67756;51.982;5.648;2023-04-25T14:36:20;19.5;30.1
78463;SHT31;67756;51.982;5.648;2023-04-25T14:38:49;19.2;30.5
78463;SHT31;67756;51.982;5.648;2023-04-25T14:41:19;18.9;29.9
78463;SHT31;67756;51.982;5.648;2023-04-25T14:43:48;18.5;31.6
78463;SHT31;67756;51.982;5.648;2023-04-25T14:46:18;18.3;32.7
78463;SHT31;67756;51.982;5.648;2023-04-25T14:48:51;18.1;34.4
78463;SHT31;67756;51.982;5.648;2023-04-25T14:51:23;18.1;32.9
78463;SHT31;67756;51.982;5.648;2023-04-25T14:53:54;18.4;32.2
78463;SHT31;67756;51.982;5.648;2023-04-25T14:56:27;18.6;32.6
78463;SHT31;67756;51.982;5.648;2023-04-25T14:58:56;18.8;31.6
78463;SHT31;67756;51.982;5.648;2023-04-25T15:01:28;18.9;31.3
78463;SHT31;67756;51.982;5.648;2023-04-25T15:03:58;18.9;29.5
78463;SHT31;67756;51.982;5.648;2023-04-25T15:06:27;18.8;29.8
78463;SHT31;67756;51.982;5.648;2023-04-25T15:08:57;18.8;31.0
78463;SHT31;67756;51.982;5.648;2023-04-25T15:11:29;18.8;30.7
78463;SHT31;67756;51.982;5.648;2023-04-25T15:13:59;18.9;30.6
78463;SHT31;67756;51.982;5.648;2023-04-25T15:16:29;19.0;31.4
78463;SHT31;67756;51.982;5.648;2023-04-25T15:18:58;18.9;30.6
78463;SHT31;67756;51.982;5.648;2023-04-25T15:21:32;18.9;30.5
78463;SHT31;67756;51.982;5.648;2023-04-25T15:24:01;18.9;31.9
78463;SHT31;67756;51.982;5.648;2023-04-25T15:26:31;18.9;31.9
78463;SHT31;67756;51.982;5.648;2023-04-25T15:29:00;19.0;32.1
78463;SHT31;67756;51.982;5.648;2023-04-25T15:31:31;19.0;32.2
78463;SHT31;67756;51.982;5.648;2023-04-25T15:34:00;18.9;32.0
78463;SHT31;67756;51.982;5.648;2023-04-25T15:36:30;18.7;32.2
78463;SHT31;67756;51.982;5.648;2023-04-25T15:39:00;18.6;33.3
78463;SHT31;67756;51.982;5.648;2023-04-25T15:41:30;18.6;33.6
78463;SHT31;67756;51.982;5.648;2023-04-25T15:44:00;18.5;33.7
78463;SHT31;67756;51.982;5.648;2023-04-25T15:46:29;18.5;31.9
78463;SHT31;67756;51.982;5.648;2023-04-25T15:48:59;18.5;31.0
78463;SHT31;67756;51.982;5.648;2023-04-25T15:51:29;18.3;30.8
78463;SHT31;67756;51.982;5.648;2023-04-25T15:54:00;18.2;31.1
78463;SHT31;67756;51.982;5.648;2023-04-25T15:56:30;18.0;32.1
78463;SHT31;67756;51.982;5.648;2023-04-25T15:59:00;17.7;31.9
78463;SHT31;67756;51.982;5.648;2023-04-25T16:01:30;17.6;33.1
78463;SHT31;67756;51.982;5.648;2023-04-25T16:04:00;17.4;32.7
78463;SHT31;67756;51.982;5.648;2023-04-25T16:06:29;17.2;33.0
78463;SHT31;67756;51.982;5.648;2023-04-25T16:09:01;17.1;34.0
78463;SHT31;67756;51.982;5.648;2023-04-25T16:11:33;17.0;33.6
78463;SHT31;67756;51.982;5.648;2023-04-25T16:14:02;16.8;33.1
78463;SHT31;67756;51.982;5.648;2023-04-25T16:16:32;16.7;33.0
78463;SHT31;67756;51.982;5.648;2023-04-25T16:19:02;16.6;32.9
78463;SHT31;67756;51.982;5.648;2023-04-25T16:21:31;16.4;33.8
78463;SHT31;67756;51.982;5.648;2023-04-25T16:24:01;16.3;34.2
78463;SHT31;67756;51.982;5.648;2023-04-25T16:26:30;16.2;34.4
78463;SHT31;67756;51.982;5.648;2023-04-25T16:29:03;16.1;35.3
78463;SHT31;67756;51.982;5.648;2023-04-25T16:31:33;16.0;36.0